createdAt,value
2024-02-12T00:00:34.953Z,97196.59
2024-02-12T00:03:21.325Z,97216.31
2024-02-12T00:05:53.377Z,97215.50
2024-02-12T00:08:27.970Z,97203.16
2024-02-12T00:11:02.949Z,97218.28
2024-02-12T00:13:40.971Z,97220.19
2024-02-12T00:16:17.942Z,97221.22
2024-02-12T00:18:52.774Z,97210.84
2024-02-12T00:21:24.251Z,97220.06
2024-02-12T00:23:58.696Z,97214.28
2024-02-12T00:26:29.967Z,97212.69
2024-02-12T00:29:07.579Z,97213.22
2024-02-12T00:31:40.556Z,97216.97
2024-02-12T00:34:14.847Z,97206.91
2024-02-12T00:36:47.296Z,97211.56
2024-02-12T00:39:19.923Z,97211.16
2024-02-12T00:41:55.469Z,97216.13
2024-02-12T00:44:29.628Z,97213.75
2024-02-12T00:47:05.239Z,97208.66
2024-02-12T00:49:36.745Z,97186.22
2024-02-12T00:52:09.872Z,97195.50
2024-02-12T00:54:42.873Z,97189.47
2024-02-12T00:57:15.253Z,97195.38
2024-02-12T00:59:51.971Z,97177.44
2024-02-12T01:02:24.496Z,97182.41
2024-02-12T01:05:01.553Z,97176.81
2024-02-12T01:07:35.340Z,97170.88
2024-02-12T01:10:08.244Z,97179.09
2024-02-12T01:12:47.664Z,97178.34
2024-02-12T01:15:28.174Z,97181.25
2024-02-12T01:18:26.545Z,97187.38
2024-02-12T01:20:58.870Z,97170.50
2024-02-12T01:23:31.997Z,97178.28
2024-02-12T01:26:06.312Z,97185.00
2024-02-12T01:28:40.302Z,97176.59
2024-02-12T01:31:24.038Z,97167.78
2024-02-12T01:33:58.445Z,97168.91
2024-02-12T01:36:38.464Z,97172.34
2024-02-12T01:39:13.244Z,97172.88
2024-02-12T01:41:49.738Z,97176.91
2024-02-12T01:44:25.505Z,97169.22
2024-02-12T01:47:24.656Z,97169.84
2024-02-12T01:50:09.118Z,97172.75
2024-02-12T01:52:51.156Z,97163.94
2024-02-12T01:55:25.396Z,97163.94
2024-02-12T01:57:59.646Z,97158.97
2024-02-12T02:00:31.361Z,97169.84
2024-02-12T02:03:19.163Z,97168.00
2024-02-12T02:05:59.011Z,97157.72
2024-02-12T02:08:46.746Z,97155.94
2024-02-12T02:11:21.729Z,97166.75
2024-02-12T02:14:00.426Z,97151.59
2024-02-12T02:16:45.118Z,97155.09
2024-02-12T02:19:25.136Z,97165.28
2024-02-12T02:21:59.058Z,97171.31
2024-02-12T02:24:37.243Z,97170.56
2024-02-12T02:27:09.297Z,97175.06
2024-02-12T02:29:44.964Z,97180.25
2024-02-12T02:32:18.709Z,97180.13
2024-02-12T02:34:49.784Z,97186.03
2024-02-12T02:37:22.965Z,97180.34
2024-02-12T02:40:03.029Z,97175.75
2024-02-12T02:42:35.832Z,97181.03
2024-02-12T02:45:08.278Z,97175.25
2024-02-12T02:48:04.679Z,97182.84
2024-02-12T02:50:38.791Z,97185.53
2024-02-12T02:53:10.576Z,97192.78
2024-02-12T02:55:48.462Z,97180.56
2024-02-12T02:58:24.379Z,97188.66
2024-02-12T03:00:59.508Z,97187.69
2024-02-12T03:03:30.820Z,97188.44
2024-02-12T03:06:07.860Z,97194.53
2024-02-12T03:08:41.919Z,97188.00
2024-02-12T03:11:24.341Z,97199.63
2024-02-12T03:14:01.965Z,97192.03
2024-02-12T03:16:34.641Z,97194.25
2024-02-12T03:19:06.795Z,97191.22
2024-02-12T03:21:42.764Z,97186.25
2024-02-12T03:24:14.976Z,97195.69
2024-02-12T03:26:52.373Z,97198.81
2024-02-12T03:29:27.002Z,97194.94
2024-02-12T03:32:05.546Z,97187.44
2024-02-12T03:34:37.639Z,97199.78
2024-02-12T03:37:09.621Z,97187.09
2024-02-12T03:39:40.883Z,97177.03
2024-02-12T03:42:15.063Z,97179.19
2024-02-12T03:44:46.835Z,97173.06
2024-02-12T03:47:20.063Z,97164.06
2024-02-12T03:50:03.852Z,97157.09
2024-02-12T03:52:48.212Z,97157.28
2024-02-12T03:55:32.168Z,97167.09
2024-02-12T03:58:18.661Z,97149.41
2024-02-12T04:00:50.329Z,97151.00
2024-02-12T04:03:24.616Z,97146.22
2024-02-12T04:06:02.272Z,97147.91
2024-02-12T04:08:37.011Z,97147.34
2024-02-12T04:11:12.293Z,97151.13
2024-02-12T04:13:48.096Z,97150.97
2024-02-12T04:16:20.095Z,97140.63
2024-02-12T04:18:55.227Z,97145.59
2024-02-12T04:21:26.497Z,97150.31
2024-02-12T04:23:59.368Z,97150.59
2024-02-12T04:26:30.906Z,97149.56
2024-02-12T04:29:08.014Z,97152.44
2024-02-12T04:31:39.807Z,97151.88
2024-02-12T04:34:15.111Z,97160.94
2024-02-12T04:36:46.589Z,97154.84
2024-02-12T04:39:18.528Z,97159.25
2024-02-12T04:41:52.962Z,97155.00
2024-02-12T04:44:27.106Z,97162.03
2024-02-12T04:46:59.855Z,97154.56
2024-02-12T04:49:32.022Z,97157.50
2024-02-12T04:52:03.857Z,97156.19
2024-02-12T04:54:35.763Z,97168.38
2024-02-12T04:57:07.488Z,97164.16
2024-02-12T04:59:42.091Z,97179.34
2024-02-12T05:02:13.960Z,97169.28
2024-02-12T05:04:46.682Z,97171.53
2024-02-12T05:07:18.389Z,97170.91
2024-02-12T05:09:51.026Z,97174.19
2024-02-12T05:12:34.250Z,97171.09
2024-02-12T05:15:13.722Z,97180.13
2024-02-12T05:17:56.924Z,97181.31
2024-02-12T05:20:40.732Z,97182.72
2024-02-12T05:23:17.052Z,97181.03
2024-02-12T05:25:53.562Z,97181.38
2024-02-12T05:28:30.798Z,97181.63
2024-02-12T05:31:05.281Z,97183.53
2024-02-12T05:33:37.264Z,97175.41
2024-02-12T05:36:15.703Z,97177.78
2024-02-12T05:38:49.476Z,97169.16
2024-02-12T05:41:22.843Z,97176.13
2024-02-12T05:43:57.972Z,97160.25
2024-02-12T05:46:34.680Z,97160.16
2024-02-12T05:49:11.751Z,97174.41
2024-02-12T05:51:44.930Z,97191.78
2024-02-12T05:54:27.106Z,97181.47
2024-02-12T05:56:59.226Z,97183.38
2024-02-12T05:59:34.752Z,97192.34
2024-02-12T06:02:14.175Z,97184.34
2024-02-12T06:04:46.490Z,97181.44
2024-02-12T06:07:18.527Z,97178.53
2024-02-12T06:09:50.296Z,97171.72
2024-02-12T06:12:24.502Z,97162.03
2024-02-12T06:14:56.537Z,97167.84
2024-02-12T06:17:32.759Z,97164.44
2024-02-12T06:20:09.950Z,97170.84
2024-02-12T06:22:45.449Z,97176.94
2024-02-12T06:25:22.388Z,97181.84
2024-02-12T06:27:57.941Z,97169.84
2024-02-12T06:30:36.397Z,97171.53
2024-02-12T06:33:19.744Z,97175.09
2024-02-12T06:35:58.557Z,97172.75
2024-02-12T06:38:33.330Z,97174.69
2024-02-12T06:41:09.466Z,97173.03
2024-02-12T06:43:44.091Z,97169.34
2024-02-12T06:46:15.563Z,97172.69
2024-02-12T06:48:53.717Z,97158.50
2024-02-12T06:51:25.716Z,97144.63
2024-02-12T06:54:06.779Z,97151.56
2024-02-12T06:56:43.590Z,97130.91
2024-02-12T06:59:15.933Z,97141.78
2024-02-12T07:01:50.537Z,97139.44
2024-02-12T07:04:27.726Z,97141.50
2024-02-12T07:07:01.392Z,97156.66
2024-02-12T07:09:36.693Z,97141.53
2024-02-12T07:12:11.892Z,97138.66
2024-02-12T07:14:44.758Z,97135.88
2024-02-12T07:17:20.419Z,97133.50
2024-02-12T07:20:02.487Z,97128.06
2024-02-12T07:22:36.460Z,97130.28
2024-02-12T07:25:17.028Z,97124.47
2024-02-12T07:27:56.202Z,97123.72
2024-02-12T07:30:31.845Z,97127.97
2024-02-12T07:33:05.842Z,97120.75
2024-02-12T07:35:40.648Z,97122.06
2024-02-12T07:38:12.658Z,97115.50
2024-02-12T07:40:45.393Z,97112.44
2024-02-12T07:43:16.924Z,97113.47
2024-02-12T07:45:48.474Z,97115.59
2024-02-12T07:48:21.660Z,97102.22
2024-02-12T07:51:00.350Z,97113.91
2024-02-12T07:53:32.384Z,97116.25
2024-02-12T07:56:06.677Z,97125.53
2024-02-12T07:58:40.762Z,97140.88
2024-02-12T08:01:14.380Z,97130.00
2024-02-12T08:03:46.581Z,97144.47
2024-02-12T08:06:26.461Z,97127.50
2024-02-12T08:08:58.255Z,97126.59
2024-02-12T08:11:32.571Z,97114.31
2024-02-12T08:14:13.652Z,97114.69
2024-02-12T08:16:51.799Z,97114.03
2024-02-12T08:19:41.151Z,97119.47
2024-02-12T08:22:17.068Z,97128.91
2024-02-12T08:24:55.668Z,97129.53
2024-02-12T08:27:29.295Z,97149.34
2024-02-12T08:30:08.716Z,97148.16
2024-02-12T08:32:42.421Z,97157.38
2024-02-12T08:35:15.025Z,97143.34
2024-02-12T08:38:02.513Z,97153.41
2024-02-12T08:40:40.584Z,97147.25
2024-02-12T08:43:12.223Z,97139.50
2024-02-12T08:45:46.350Z,97139.88
2024-02-12T08:48:23.402Z,97136.56
2024-02-12T08:51:05.803Z,97136.00
2024-02-12T08:53:45.786Z,97101.00
2024-02-12T08:56:37.541Z,97100.91
2024-02-12T08:59:12.457Z,97104.34
2024-02-12T09:01:44.910Z,97081.22
2024-02-12T09:04:21.508Z,97080.50
2024-02-12T09:06:53.003Z,97063.75
2024-02-12T09:09:27.965Z,97061.41
2024-02-12T09:12:02.823Z,97054.41
2024-02-12T09:14:36.883Z,97042.69
2024-02-12T09:17:13.522Z,97031.78
2024-02-12T09:19:46.407Z,97048.84
2024-02-12T09:22:18.244Z,97036.81
2024-02-12T09:24:58.718Z,97024.25
2024-02-12T09:27:32.851Z,97027.47
2024-02-12T09:30:08.353Z,97000.44
2024-02-12T09:32:46.035Z,96999.41
2024-02-12T09:35:20.716Z,97004.06
2024-02-12T09:38:01.374Z,97006.16
2024-02-12T09:40:47.673Z,97007.81
2024-02-12T09:43:30.169Z,96997.63
2024-02-12T09:46:09.087Z,96985.59
2024-02-12T09:48:41.608Z,96963.69
2024-02-12T09:51:15.691Z,96979.56
2024-02-12T09:53:57.263Z,96993.56
2024-02-12T09:56:33.295Z,96987.03
2024-02-12T09:59:04.757Z,96988.63
2024-02-12T10:01:38.313Z,97002.38
2024-02-12T10:04:31.123Z,97008.22
2024-02-12T10:07:23.605Z,96998.16
2024-02-12T10:10:21.770Z,96995.91
2024-02-12T10:13:16.576Z,97004.91
2024-02-12T10:16:08.862Z,96992.78
2024-02-12T10:19:02.454Z,96986.88
2024-02-12T10:21:56.929Z,96988.31
2024-02-12T10:24:50.398Z,96974.44
2024-02-12T10:27:42.238Z,96963.44
2024-02-12T10:30:37.499Z,96963.53
2024-02-12T10:33:30.549Z,96937.44
2024-02-12T10:36:25.582Z,96926.09
2024-02-12T10:39:26.134Z,96903.38
2024-02-12T10:42:25.086Z,96916.19
2024-02-12T10:45:20.939Z,96908.75
2024-02-12T10:48:22.847Z,96912.44
2024-02-12T10:51:15.443Z,96900.81
2024-02-12T10:54:10.044Z,96887.31
2024-02-12T10:56:45.695Z,96888.94
2024-02-12T10:59:18.421Z,96885.63
2024-02-12T11:01:57.803Z,96876.34
2024-02-12T11:04:36.978Z,96864.72
2024-02-12T11:07:13.050Z,96856.25
2024-02-12T11:09:46.754Z,96876.59
2024-02-12T11:12:47.085Z,96846.75
2024-02-12T11:15:43.128Z,96867.38
2024-02-12T11:21:18.382Z,96850.44
2024-02-12T11:23:53.643Z,96847.69
2024-02-12T11:26:27.232Z,96842.09
2024-02-12T11:29:11.098Z,96850.47
2024-02-12T11:31:49.258Z,96862.59
2024-02-12T11:34:25.770Z,96848.88
2024-02-12T11:37:08.578Z,96846.41
2024-02-12T11:39:41.099Z,96823.69
2024-02-12T11:42:25.272Z,96830.41
2024-02-12T11:45:05.768Z,96831.38
2024-02-12T11:47:45.462Z,96869.28
2024-02-12T11:50:30.608Z,96867.66
2024-02-12T11:54:01.613Z,96864.72
2024-02-12T11:56:38.334Z,96862.66
2024-02-12T11:59:12.072Z,96869.19
2024-02-12T12:01:46.484Z,96876.97
2024-02-12T12:04:18.134Z,96856.25
2024-02-12T12:06:52.317Z,96858.63
2024-02-12T12:09:26.793Z,96858.94
2024-02-12T12:12:00.059Z,96867.22
2024-02-12T12:14:41.109Z,96860.38
2024-02-12T12:17:30.263Z,96866.16
2024-02-12T12:20:17.748Z,96870.19
2024-02-12T12:22:58.255Z,96861.00
2024-02-12T12:25:38.137Z,96854.78
2024-02-12T12:28:23.739Z,96879.75
2024-02-12T12:30:58.400Z,96875.59
2024-02-12T12:33:33.480Z,96888.03
2024-02-12T12:36:13.591Z,96884.63
2024-02-12T12:38:53.897Z,96872.09
2024-02-12T12:41:30.977Z,96873.84
2024-02-12T12:44:12.102Z,96870.34
2024-02-12T12:46:44.201Z,96865.56
2024-02-12T12:49:23.869Z,96868.25
2024-02-12T12:51:59.304Z,96859.81
2024-02-12T12:54:37.238Z,96870.38
2024-02-12T12:57:14.867Z,96866.09
2024-02-12T12:59:51.755Z,96851.75
2024-02-12T13:02:28.068Z,96855.56
2024-02-12T13:05:07.268Z,96852.06
2024-02-12T13:08:17.478Z,96860.72
2024-02-12T13:10:53.651Z,96849.41
2024-02-12T13:13:37.188Z,96864.63
2024-02-12T13:16:14.835Z,96860.47
2024-02-12T13:18:49.452Z,96880.31
2024-02-12T13:21:40.253Z,96880.91
2024-02-12T13:24:17.503Z,96874.47
2024-02-12T13:26:52.748Z,96883.00
2024-02-12T13:29:28.550Z,96883.31
2024-02-12T13:32:08.459Z,96887.03
2024-02-12T13:34:40.602Z,96875.09
2024-02-12T13:37:14.105Z,96873.94
2024-02-12T13:39:48.354Z,96884.75
2024-02-12T13:42:27.289Z,96879.25
2024-02-12T13:45:04.663Z,96885.72
2024-02-12T13:47:46.572Z,96875.91
2024-02-12T13:50:18.703Z,96867.56
2024-02-12T13:52:50.524Z,96877.44
2024-02-12T13:55:22.908Z,96879.78
2024-02-12T13:57:54.921Z,96882.00
2024-02-12T14:00:47.513Z,96882.31
2024-02-12T14:03:21.229Z,96876.38
2024-02-12T14:05:56.625Z,96886.09
2024-02-12T14:08:31.564Z,96897.97
2024-02-12T14:11:03.248Z,96919.41
2024-02-12T14:13:34.975Z,96939.19
2024-02-12T14:16:11.299Z,96935.88
2024-02-12T14:18:44.264Z,96932.25
2024-02-12T14:21:17.368Z,96925.63
2024-02-12T14:23:49.536Z,96915.47
2024-02-12T14:26:23.210Z,96900.25
2024-02-12T14:28:55.698Z,96877.34
2024-02-12T14:31:34.354Z,96877.66
2024-02-12T14:34:27.594Z,96894.25
2024-02-12T14:36:59.563Z,96888.25
2024-02-12T14:39:30.993Z,96906.28
2024-02-12T14:42:02.303Z,96912.16
2024-02-12T14:44:36.485Z,96912.50
2024-02-12T14:47:12.260Z,96917.53
2024-02-12T14:49:46.329Z,96917.63
2024-02-12T14:52:20.750Z,96908.56
2024-02-12T14:54:52.620Z,96917.56
2024-02-12T14:57:24.229Z,96933.19
2024-02-12T14:59:58.100Z,96932.56
2024-02-12T15:02:32.518Z,96932.47
2024-02-12T15:05:07.791Z,96939.03
2024-02-12T15:07:39.599Z,96943.28
2024-02-12T15:10:12.834Z,96944.84
2024-02-12T15:12:48.415Z,96957.66
2024-02-12T15:15:21.024Z,96959.19
2024-02-12T15:17:56.961Z,96954.00
2024-02-12T15:20:37.459Z,96965.28
2024-02-12T15:23:12.314Z,96962.34
2024-02-12T15:25:45.591Z,96954.88
2024-02-12T15:28:18.492Z,96958.03
2024-02-12T15:30:53.650Z,96970.97
2024-02-12T15:33:49.202Z,96973.97
2024-02-12T15:36:21.752Z,96984.41
2024-02-12T15:38:53.617Z,96981.94
2024-02-12T15:41:28.862Z,96985.94
2024-02-12T15:44:38.361Z,96993.56
2024-02-12T15:47:15.979Z,96998.28
2024-02-12T15:49:51.321Z,96991.44
2024-02-12T15:52:24.732Z,96993.84
2024-02-12T15:54:57.998Z,97003.25
2024-02-12T15:57:46.515Z,97001.78
2024-02-12T16:00:24.693Z,96999.50
2024-02-12T16:03:03.659Z,97014.50
2024-02-12T16:06:07.485Z,97011.84
2024-02-12T16:08:53.906Z,97017.03
2024-02-12T16:11:28.758Z,97001.38
2024-02-12T16:14:04.954Z,97018.22
2024-02-12T16:16:37.052Z,97022.03
2024-02-12T16:19:17.948Z,97036.59
2024-02-12T16:21:49.384Z,97036.59
2024-02-12T16:24:23.569Z,97038.72
2024-02-12T16:26:55.042Z,97037.78
2024-02-12T16:29:27.826Z,97047.75
2024-02-12T16:31:59.235Z,97053.97
2024-02-12T16:34:32.341Z,97053.31
2024-02-12T16:37:05.699Z,97057.66
2024-02-12T16:39:42.236Z,97047.31
2024-02-12T16:42:14.577Z,97043.25
2024-02-12T16:44:46.170Z,97046.13
2024-02-12T16:47:19.117Z,97044.44
2024-02-12T16:49:52.309Z,97053.75
2024-02-12T16:52:23.902Z,97046.66
2024-02-12T16:54:57.837Z,97061.72
2024-02-12T16:57:53.278Z,97061.44
2024-02-12T17:00:29.753Z,97068.16
2024-02-12T17:03:12.068Z,97071.03
2024-02-12T17:05:44.534Z,97068.78
2024-02-12T17:08:19.183Z,97067.69
2024-02-12T17:10:53.329Z,97073.13
2024-02-12T17:13:31.488Z,97074.78
2024-02-12T17:16:03.833Z,97068.22
2024-02-12T17:18:36.045Z,97069.97
2024-02-12T17:21:07.590Z,97061.22
2024-02-12T17:23:39.499Z,97052.38
2024-02-12T17:26:14.832Z,97055.59
2024-02-12T17:28:46.886Z,97056.06
2024-02-12T17:31:19.628Z,97071.47
2024-02-12T17:33:57.531Z,97071.34
2024-02-12T17:36:32.177Z,97076.00
2024-02-12T17:39:03.814Z,97073.53
2024-02-12T17:41:38.184Z,97060.38
2024-02-12T17:44:15.221Z,97077.31
2024-02-12T17:46:52.152Z,97083.56
2024-02-12T17:49:23.830Z,97080.16
2024-02-12T17:51:55.756Z,97085.66
2024-02-12T17:54:29.456Z,97077.34
2024-02-12T17:57:05.295Z,97068.09
2024-02-12T17:59:40.507Z,97065.97
2024-02-12T18:02:16.278Z,97071.38
2024-02-12T18:04:47.953Z,97082.72
2024-02-12T18:07:19.536Z,97097.66
2024-02-12T18:09:52.621Z,97093.50
2024-02-12T18:12:28.725Z,97090.28
2024-02-12T18:15:01.719Z,97084.94
2024-02-12T18:17:37.278Z,97082.03
2024-02-12T18:20:10.134Z,97079.75
2024-02-12T18:22:41.846Z,97070.44
2024-02-12T18:25:16.310Z,97092.41
2024-02-12T18:27:57.602Z,97095.72
2024-02-12T18:30:28.455Z,97088.72
2024-02-12T18:33:03.937Z,97090.09
2024-02-12T18:35:38.272Z,97081.00
2024-02-12T18:38:13.355Z,97070.63
2024-02-12T18:40:45.403Z,97076.69
2024-02-12T18:43:19.925Z,97074.81
2024-02-12T18:45:53.416Z,97078.09
2024-02-12T18:48:26.349Z,97079.13
2024-02-12T18:50:57.964Z,97090.69
2024-02-12T18:53:29.398Z,97093.03
2024-02-12T18:56:01.407Z,97089.88
2024-02-12T18:58:36.773Z,97091.03
2024-02-12T19:01:12.612Z,97089.72
2024-02-12T19:03:47.788Z,97085.13
2024-02-12T19:06:19.839Z,97093.69
2024-02-12T19:08:54.429Z,97106.00
2024-02-12T19:11:26.620Z,97110.91
2024-02-12T19:14:06.628Z,97109.25
2024-02-12T19:16:39.219Z,97113.66
2024-02-12T19:19:11.592Z,97105.44
2024-02-12T19:21:46.147Z,97104.44
2024-02-12T19:24:23.753Z,97113.16
2024-02-12T19:26:57.655Z,97109.75
2024-02-12T19:29:31.581Z,97113.06
2024-02-12T19:32:05.007Z,97119.00
2024-02-12T19:34:37.909Z,97106.75
2024-02-12T19:37:12.012Z,97109.59
2024-02-12T19:39:50.556Z,97114.22
2024-02-12T19:42:24.253Z,97120.81
2024-02-12T19:44:58.320Z,97112.41
2024-02-12T19:47:32.981Z,97119.72
2024-02-12T19:50:04.662Z,97113.91
2024-02-12T19:52:36.180Z,97116.31
2024-02-12T19:55:09.517Z,97121.53
2024-02-12T19:57:42.696Z,97111.16
2024-02-12T20:00:18.920Z,97122.50
2024-02-12T20:02:52.940Z,97113.16
2024-02-12T20:05:24.748Z,97108.38
2024-02-12T20:07:57.118Z,97105.31
2024-02-12T20:10:28.821Z,97106.97
2024-02-12T20:13:00.498Z,97100.47
2024-02-12T20:15:35.410Z,97105.00
2024-02-12T20:18:08.043Z,97110.09
2024-02-12T20:20:42.090Z,97101.53
2024-02-12T20:23:15.577Z,97103.22
2024-02-12T20:25:48.224Z,97106.19
2024-02-12T20:28:42.084Z,97108.91
2024-02-12T20:31:19.308Z,97101.09
2024-02-12T20:33:53.874Z,97097.88
2024-02-12T20:36:27.699Z,97088.72
2024-02-12T20:38:58.549Z,97087.75
2024-02-12T20:41:32.150Z,97084.34
2024-02-12T20:44:03.674Z,97097.03
2024-02-12T20:46:37.678Z,97089.91
2024-02-12T20:49:08.661Z,97097.28
2024-02-12T20:51:40.173Z,97089.91
2024-02-12T20:54:11.452Z,97086.88
2024-02-12T20:56:43.794Z,97082.00
2024-02-12T20:59:15.009Z,97076.09
2024-02-12T21:01:49.060Z,97074.22
2024-02-12T21:04:20.578Z,97076.56
2024-02-12T21:06:51.936Z,97084.34
2024-02-12T21:09:23.115Z,97070.38
2024-02-12T21:11:54.595Z,97070.03
2024-02-12T21:14:26.343Z,97067.81
2024-02-12T21:17:05.911Z,97060.75
2024-02-12T21:19:37.115Z,97069.22
2024-02-12T21:22:12.595Z,97059.66
2024-02-12T21:24:46.309Z,97052.63
2024-02-12T21:27:17.713Z,97059.41
2024-02-12T21:29:52.672Z,97054.25
2024-02-12T21:32:30.660Z,97046.41
2024-02-12T21:35:03.415Z,97045.69
2024-02-12T21:37:35.851Z,97047.97
2024-02-12T21:40:09.842Z,97053.03
2024-02-12T21:42:40.613Z,97062.44
2024-02-12T21:45:13.107Z,97070.97
2024-02-12T21:47:48.930Z,97064.25
2024-02-12T21:50:23.934Z,97062.50
2024-02-12T21:53:02.977Z,97056.53
2024-02-12T21:55:34.416Z,97051.31
2024-02-12T21:58:12.627Z,97053.13
2024-02-12T22:00:45.869Z,97054.25
2024-02-12T22:03:21.240Z,97049.34
2024-02-12T22:05:57.618Z,97030.00
2024-02-12T22:08:29.457Z,97042.38
2024-02-12T22:11:01.787Z,97038.91
2024-02-12T22:13:33.505Z,97028.25
2024-02-12T22:16:07.362Z,97028.50
2024-02-12T22:18:41.951Z,97025.69
2024-02-12T22:21:13.673Z,97024.31
2024-02-12T22:23:46.101Z,97030.66
2024-02-12T22:26:17.905Z,97031.50
2024-02-12T22:28:50.664Z,97030.50
2024-02-12T22:31:25.933Z,97016.88
2024-02-12T22:34:05.104Z,97006.41
2024-02-12T22:36:37.173Z,97004.47
2024-02-12T22:39:09.831Z,97008.56
2024-02-12T22:41:44.740Z,97005.44
2024-02-12T22:44:16.834Z,97000.28
2024-02-12T22:46:48.577Z,97009.84
2024-02-12T22:49:23.139Z,97014.22
2024-02-12T22:51:56.473Z,97005.19
2024-02-12T22:54:28.031Z,97012.31
2024-02-12T22:56:59.786Z,97018.22
2024-02-12T22:59:32.564Z,97017.56
2024-02-12T23:02:05.607Z,97018.22
2024-02-12T23:04:41.704Z,97021.34
2024-02-12T23:07:14.046Z,97020.28
2024-02-12T23:09:48.077Z,97017.78
2024-02-12T23:12:18.924Z,97014.03
2024-02-12T23:14:51.231Z,97024.25
2024-02-12T23:17:25.960Z,97020.69
2024-02-12T23:20:01.428Z,97023.34
2024-02-12T23:22:33.224Z,97021.59
2024-02-12T23:25:04.666Z,97034.25
2024-02-12T23:27:37.104Z,97029.00
2024-02-12T23:30:10.340Z,97037.72
2024-02-12T23:32:45.654Z,97029.75
2024-02-12T23:35:20.046Z,97023.69
2024-02-12T23:37:52.475Z,97025.19
2024-02-12T23:40:24.121Z,97029.91
2024-02-12T23:42:55.316Z,97030.81
2024-02-12T23:45:27.994Z,97032.50
2024-02-12T23:48:20.602Z,97038.25
2024-02-12T23:50:54.888Z,97035.84
2024-02-12T23:53:28.041Z,97033.84
2024-02-12T23:55:59.685Z,97037.16
2024-02-12T23:58:35.917Z,97034.16
